createdAt,value
2018-08-11T00:00:12.501Z,3.13
2018-08-11T00:02:40.528Z,2.63
2018-08-11T00:05:08.557Z,4.73
2018-08-11T00:07:36.866Z,3.07
2018-08-11T00:10:06.803Z,2.87
2018-08-11T00:12:35.068Z,4.07
2018-08-11T00:15:03.104Z,3.50
2018-08-11T00:17:31.156Z,3.03
2018-08-11T00:19:59.397Z,2.53
2018-08-11T00:22:27.425Z,1.57
2018-08-11T00:24:55.501Z,1.73
2018-08-11T00:27:27.265Z,1.50
2018-08-11T00:29:55.301Z,2.10
2018-08-11T00:32:23.355Z,1.42
2018-08-11T00:34:51.379Z,1.20
2018-08-11T00:37:19.426Z,1.20
2018-08-11T00:39:47.467Z,2.13
2018-08-11T00:42:15.486Z,1.92
2018-08-11T00:44:43.534Z,2.33
2018-08-11T00:47:11.549Z,1.60
2018-08-11T00:49:39.582Z,1.83
2018-08-11T00:52:07.602Z,1.60
2018-08-11T00:54:35.625Z,1.10
2018-08-11T00:57:03.887Z,1.50
2018-08-11T00:59:31.920Z,1.13
2018-08-11T01:01:59.953Z,1.32
2018-08-11T01:04:27.981Z,3.23
2018-08-11T01:06:56.036Z,1.30
2018-08-11T01:09:24.049Z,1.27
2018-08-11T01:11:52.232Z,1.30
2018-08-11T01:14:20.248Z,1.30
2018-08-11T01:16:48.281Z,1.97
2018-08-11T01:19:16.573Z,1.77
2018-08-11T01:21:44.597Z,2.07
2018-08-11T01:24:12.647Z,1.37
2018-08-11T01:26:40.824Z,1.17
2018-08-11T01:29:08.876Z,1.70
2018-08-11T01:31:36.898Z,1.47
2018-08-11T01:34:04.933Z,1.33
2018-08-11T01:36:32.950Z,2.27
2018-08-11T01:39:00.976Z,1.43
2018-08-11T01:41:29.032Z,1.70
2018-08-11T01:43:57.056Z,1.50
2018-08-11T01:46:25.091Z,1.90
2018-08-11T01:48:53.117Z,1.30
2018-08-11T01:51:21.152Z,1.53
2018-08-11T01:53:55.703Z,1.63
2018-08-11T01:56:23.804Z,2.13
2018-08-11T01:58:51.828Z,2.40
2018-08-11T02:01:19.880Z,2.10
2018-08-11T02:03:47.909Z,2.43
2018-08-11T02:06:15.945Z,3.10
2018-08-11T02:08:43.978Z,2.70
2018-08-11T02:11:12.061Z,2.40
2018-08-11T02:13:40.041Z,2.73
2018-08-11T02:16:08.063Z,3.50
2018-08-11T02:18:36.097Z,2.50
2018-08-11T02:21:04.782Z,2.60
2018-08-11T02:23:32.812Z,3.37
2018-08-11T02:26:01.009Z,3.00
2018-08-11T02:28:29.060Z,2.90
2018-08-11T02:30:57.086Z,2.50
2018-08-11T02:33:25.104Z,3.80
2018-08-11T02:35:53.121Z,4.73
2018-08-11T02:38:21.140Z,3.20
2018-08-11T02:40:49.158Z,4.07
2018-08-11T02:43:17.345Z,5.60
2018-08-11T02:45:45.368Z,4.87
2018-08-11T02:48:13.392Z,6.60
2018-08-11T02:50:41.431Z,4.20
2018-08-11T02:53:09.450Z,5.80
2018-08-11T02:55:37.497Z,6.07
2018-08-11T02:58:05.782Z,5.53
2018-08-11T03:00:33.817Z,6.57
2018-08-11T03:03:01.848Z,6.70
2018-08-11T03:05:29.879Z,7.40
2018-08-11T03:07:57.904Z,6.67
2018-08-11T03:10:26.064Z,7.20
2018-08-11T03:12:54.103Z,7.23
2018-08-11T03:15:22.129Z,6.73
2018-08-11T03:17:50.162Z,6.47
2018-08-11T03:20:18.340Z,7.67
2018-08-11T03:22:53.025Z,9.67
2018-08-11T03:25:21.050Z,8.50
2018-08-11T03:27:49.080Z,8.20
2018-08-11T03:30:17.084Z,7.03
2018-08-11T03:32:45.268Z,9.00
2018-08-11T03:35:13.285Z,9.53
2018-08-11T03:37:41.303Z,8.93
2018-08-11T03:40:10.365Z,9.25
2018-08-11T03:42:38.437Z,8.77
2018-08-11T03:45:06.582Z,9.65
2018-08-11T03:47:34.768Z,9.13
2018-08-11T03:50:02.785Z,11.57
2018-08-11T03:52:30.851Z,8.35
2018-08-11T03:54:58.829Z,11.23
2018-08-11T03:57:26.856Z,9.17
2018-08-11T03:59:54.880Z,9.17
2018-08-11T04:02:22.913Z,9.00
2018-08-11T04:04:50.945Z,12.03
2018-08-11T04:07:19.136Z,9.90
2018-08-11T04:09:47.161Z,11.00
2018-08-11T04:12:15.208Z,10.53
2018-08-11T04:14:43.235Z,12.97
2018-08-11T04:17:11.265Z,10.45
2018-08-11T04:19:39.326Z,11.23
2018-08-11T04:22:07.533Z,11.77
2018-08-11T04:24:35.573Z,11.83
2018-08-11T04:27:03.609Z,12.53
2018-08-11T04:29:31.657Z,12.43
2018-08-11T04:31:59.677Z,11.67
2018-08-11T04:34:27.707Z,13.07
2018-08-11T04:36:55.752Z,13.97
2018-08-11T04:39:23.804Z,13.80
2018-08-11T04:41:51.863Z,12.57
2018-08-11T04:44:19.859Z,11.93
2018-08-11T04:46:47.891Z,14.87
2018-08-11T04:49:15.924Z,14.27
2018-08-11T04:51:44.312Z,12.82
2018-08-11T04:54:12.370Z,13.93
2018-08-11T04:56:40.400Z,13.53
2018-08-11T04:59:08.416Z,13.63
2018-08-11T05:01:36.466Z,14.60
2018-08-11T05:04:04.589Z,13.03
2018-08-11T05:06:32.628Z,15.53
2018-08-11T05:09:00.686Z,15.40
2018-08-11T05:11:28.733Z,13.93
2018-08-11T05:13:56.753Z,14.37
2018-08-11T05:16:24.772Z,15.20
2018-08-11T05:18:52.799Z,16.23
2018-08-11T05:21:20.823Z,16.85
2018-08-11T05:23:48.851Z,19.10
2018-08-11T05:26:17.075Z,16.13
2018-08-11T05:28:45.092Z,16.50
2018-08-11T05:31:13.158Z,17.17
2018-08-11T05:33:41.194Z,18.87
2018-08-11T05:36:09.232Z,16.27
2018-08-11T05:38:37.301Z,16.87
2018-08-11T05:41:05.357Z,17.53
2018-08-11T05:43:33.403Z,19.67
2018-08-11T05:46:01.443Z,17.50
2018-08-11T05:48:29.507Z,19.20
2018-08-11T05:50:57.531Z,18.53
2018-08-11T05:53:25.567Z,18.73
2018-08-11T05:55:53.632Z,18.47
2018-08-11T05:58:21.670Z,19.45
2018-08-11T06:00:49.704Z,18.00
2018-08-11T06:03:17.788Z,17.52
2018-08-11T06:05:45.820Z,19.57
2018-08-11T06:08:13.844Z,18.67
2018-08-11T06:10:41.866Z,19.33
2018-08-11T06:13:09.885Z,18.75
2018-08-11T06:15:37.949Z,19.27
2018-08-11T06:18:06.131Z,18.73
2018-08-11T06:20:34.187Z,17.80
2018-08-11T06:23:02.211Z,18.70
2018-08-11T06:25:30.498Z,17.77
2018-08-11T06:27:58.518Z,15.93
2018-08-11T06:30:26.557Z,15.53
2018-08-11T06:32:54.581Z,15.23
2018-08-11T06:35:22.621Z,16.47
2018-08-11T06:37:50.669Z,15.97
2018-08-11T06:40:18.712Z,14.77
2018-08-11T06:42:46.742Z,15.07
2018-08-11T06:45:14.926Z,14.87
2018-08-11T06:47:42.950Z,15.97
2018-08-11T06:50:10.992Z,13.18
2018-08-11T06:52:39.024Z,14.90
2018-08-11T06:55:07.188Z,14.67
2018-08-11T06:57:35.231Z,13.50
2018-08-11T07:00:03.404Z,14.90
2018-08-11T07:02:31.445Z,13.50
2018-08-11T07:04:59.474Z,13.90
2018-08-11T07:07:27.501Z,11.97
2018-08-11T07:09:55.534Z,11.73
2018-08-11T07:12:23.559Z,10.83
2018-08-11T07:14:51.577Z,11.70
2018-08-11T07:17:19.852Z,12.30
2018-08-11T07:19:48.517Z,11.70
2018-08-11T07:22:16.705Z,12.87
2018-08-11T07:24:44.750Z,11.30
2018-08-11T07:27:12.865Z,10.40
2018-08-11T07:29:41.022Z,10.93
2018-08-11T07:32:09.061Z,10.73
2018-08-11T07:34:37.096Z,10.47
2018-08-11T07:37:05.384Z,10.00
2018-08-11T07:39:33.410Z,9.63
2018-08-11T07:42:01.439Z,8.67
2018-08-11T07:44:29.748Z,8.97
2018-08-11T07:46:57.772Z,9.50
2018-08-11T07:49:26.113Z,9.00
2018-08-11T07:51:54.148Z,8.23
2018-08-11T07:54:22.212Z,9.40
2018-08-11T07:56:50.248Z,8.00
2018-08-11T07:59:18.401Z,7.78
2018-08-11T08:01:46.417Z,7.23
2018-08-11T08:04:14.455Z,7.03
2018-08-11T08:06:42.485Z,7.13
2018-08-11T08:09:12.412Z,5.90
2018-08-11T08:11:41.101Z,5.50
2018-08-11T08:14:09.377Z,5.42
2018-08-11T08:16:37.384Z,5.77
2018-08-11T08:19:05.613Z,5.00
2018-08-11T08:21:33.787Z,7.80
2018-08-11T08:24:01.821Z,7.87
2018-08-11T08:26:29.974Z,4.60
2018-08-11T08:28:57.882Z,4.90
2018-08-11T08:31:26.105Z,5.90
2018-08-11T08:33:54.140Z,4.70
2018-08-11T08:36:22.168Z,2.93
2018-08-11T08:38:50.188Z,5.00
2018-08-11T08:41:18.677Z,3.43
2018-08-11T08:43:46.701Z,3.10
2018-08-11T08:46:14.836Z,3.72
2018-08-11T08:48:42.872Z,4.47
2018-08-11T08:51:10.976Z,4.00
2018-08-11T08:53:39.004Z,3.27
2018-08-11T08:56:07.124Z,2.43
2018-08-11T08:58:35.139Z,5.35
2018-08-11T09:01:03.148Z,3.23
2018-08-11T09:03:31.175Z,2.30
2018-08-11T09:05:59.200Z,5.07
2018-08-11T09:08:27.240Z,2.40
2018-08-11T09:10:55.265Z,3.10
2018-08-11T09:13:23.307Z,3.90
2018-08-11T09:15:51.353Z,2.90
2018-08-11T09:18:19.745Z,2.70
2018-08-11T09:20:47.776Z,1.63
2018-08-11T09:23:15.788Z,3.43
2018-08-11T09:25:43.797Z,1.93
2018-08-11T09:28:11.817Z,1.85
2018-08-11T09:30:41.016Z,3.53
2018-08-11T09:33:09.041Z,2.50
2018-08-11T09:35:37.069Z,2.20
2018-08-11T09:38:05.536Z,1.80
2018-08-11T09:40:33.614Z,1.70
2018-08-11T09:43:01.642Z,2.67
2018-08-11T09:45:29.976Z,3.30
2018-08-11T09:47:58.138Z,3.37
2018-08-11T09:50:26.141Z,3.17
2018-08-11T09:52:54.581Z,3.10
2018-08-11T09:55:22.633Z,3.17
2018-08-11T09:57:50.649Z,4.67
2018-08-11T10:00:23.970Z,2.50
2018-08-11T10:02:52.753Z,2.50
2018-08-11T10:05:21.028Z,6.10
2018-08-11T10:07:49.083Z,3.27
2018-08-11T10:10:17.121Z,4.40
2018-08-11T10:12:45.604Z,4.27
2018-08-11T10:15:13.618Z,4.40
2018-08-11T10:17:41.637Z,4.23
2018-08-11T10:20:09.896Z,3.73
2018-08-11T10:22:37.940Z,1.60
2018-08-11T10:25:05.988Z,3.50
2018-08-11T10:27:34.048Z,1.93
2018-08-11T10:30:02.076Z,2.30
2018-08-11T10:32:30.114Z,1.77
2018-08-11T10:34:58.548Z,1.83
2018-08-11T10:37:26.622Z,4.50
2018-08-11T10:39:54.679Z,2.23
2018-08-11T10:42:22.769Z,2.50
2018-08-11T10:44:50.860Z,3.07
2018-08-11T10:47:18.884Z,3.73
2018-08-11T10:49:46.904Z,2.93
2018-08-11T10:52:15.353Z,2.67
2018-08-11T10:54:43.369Z,2.10
2018-08-11T10:57:11.389Z,2.22
2018-08-11T10:59:39.413Z,5.07
2018-08-11T11:02:07.447Z,7.10
2018-08-11T11:04:35.722Z,2.07
2018-08-11T11:07:05.009Z,3.58
2018-08-11T11:09:39.733Z,2.53
2018-08-11T11:12:14.452Z,2.40
2018-08-11T11:14:42.466Z,2.60
2018-08-11T11:17:10.488Z,1.93
2018-08-11T11:19:38.522Z,2.10
2018-08-11T11:22:06.863Z,3.07
2018-08-11T11:24:35.042Z,2.20
2018-08-11T11:27:03.064Z,3.63
2018-08-11T11:29:31.101Z,2.63
2018-08-11T11:31:59.135Z,2.53
2018-08-11T11:34:27.149Z,2.07
2018-08-11T11:36:55.212Z,2.37
2018-08-11T11:39:23.230Z,6.17
2018-08-11T11:41:51.249Z,3.67
2018-08-11T11:44:19.593Z,2.37
2018-08-11T11:46:47.609Z,2.97
2018-08-11T11:49:15.644Z,1.90
2018-08-11T11:51:43.658Z,2.97
2018-08-11T11:54:11.678Z,2.45
2018-08-11T11:56:39.717Z,3.43
2018-08-11T11:59:09.024Z,4.07
2018-08-11T12:01:37.057Z,2.67
2018-08-11T12:04:05.072Z,3.97
2018-08-11T12:06:33.180Z,3.60
2018-08-11T12:09:01.508Z,3.90
2018-08-11T12:11:29.617Z,3.23
2018-08-11T12:13:57.976Z,4.03
2018-08-11T12:16:25.989Z,2.50
2018-08-11T12:18:54.309Z,3.27
2018-08-11T12:21:22.361Z,2.10
2018-08-11T12:23:50.380Z,2.87
2018-08-11T12:26:18.400Z,2.57
2018-08-11T12:28:46.444Z,3.10
2018-08-11T12:31:14.527Z,3.12
2018-08-11T12:33:42.857Z,1.87
2018-08-11T12:36:10.876Z,2.83
2018-08-11T12:38:38.899Z,3.80
2018-08-11T12:41:06.948Z,2.77
2018-08-11T12:43:34.973Z,2.83
2018-08-11T12:46:02.981Z,2.70
2018-08-11T12:48:31.280Z,1.90
2018-08-11T12:50:59.313Z,7.57
2018-08-11T12:53:27.485Z,2.93
2018-08-11T12:55:55.469Z,2.87
2018-08-11T12:58:23.493Z,1.60
2018-08-11T13:00:51.531Z,2.93
2018-08-11T13:03:19.555Z,2.58
2018-08-11T13:05:47.594Z,4.37
2018-08-11T13:08:15.634Z,4.08
2018-08-11T13:10:43.665Z,1.90
2018-08-11T13:13:11.701Z,1.87
2018-08-11T13:15:39.940Z,3.23
2018-08-11T13:18:07.953Z,2.07
2018-08-11T13:20:36.234Z,2.67
2018-08-11T13:23:04.909Z,2.05
2018-08-11T13:25:32.945Z,2.63
2018-08-11T13:28:00.984Z,1.57
2018-08-11T13:30:29.033Z,1.47
2018-08-11T13:32:57.188Z,1.73
2018-08-11T13:35:25.233Z,3.67
2018-08-11T13:37:53.323Z,3.83
2018-08-11T13:40:21.353Z,1.52
2018-08-11T13:42:49.377Z,1.77
2018-08-11T13:45:17.564Z,1.43
2018-08-11T13:47:45.793Z,2.50
2018-08-11T13:50:13.801Z,2.70
2018-08-11T13:52:41.862Z,1.53
2018-08-11T13:55:10.127Z,2.03
2018-08-11T13:57:38.181Z,2.00
2018-08-11T14:00:07.380Z,1.40
2018-08-11T14:02:35.422Z,2.07
2018-08-11T14:05:03.655Z,2.37
2018-08-11T14:07:31.727Z,1.30
2018-08-11T14:09:59.702Z,1.97
2018-08-11T14:12:28.044Z,1.20
2018-08-11T14:14:56.284Z,1.63
2018-08-11T14:17:24.257Z,2.30
2018-08-11T14:19:52.271Z,3.10
2018-08-11T14:22:20.308Z,1.45
2018-08-11T14:24:48.340Z,1.80
2018-08-11T14:27:16.368Z,2.85
2018-08-11T14:32:37.125Z,1.00
2018-08-11T14:35:05.365Z,1.60
2018-08-11T14:37:43.472Z,1.53
2018-08-11T14:40:11.508Z,1.25
2018-08-11T14:42:39.577Z,0.80
2018-08-11T14:45:09.069Z,2.90
2018-08-11T14:47:37.100Z,2.80
2018-08-11T14:50:05.703Z,1.50
2018-08-11T14:52:33.726Z,2.30
2018-08-11T14:55:01.753Z,1.53
2018-08-11T14:57:29.781Z,0.70
2018-08-11T14:59:57.817Z,2.33
2018-08-11T15:02:25.850Z,1.60
2018-08-11T15:04:53.876Z,1.17
2018-08-11T15:07:21.903Z,2.40
2018-08-11T15:09:50.016Z,1.73
2018-08-11T15:12:24.265Z,1.17
2018-08-11T15:14:56.930Z,1.30
2018-08-11T15:17:25.273Z,1.47
2018-08-11T15:19:53.293Z,2.50
2018-08-11T15:25:14.337Z,1.47
2018-08-11T15:27:42.516Z,2.00
2018-08-11T15:30:11.794Z,1.23
2018-08-11T15:32:40.825Z,1.30
2018-08-11T15:35:09.547Z,1.30
2018-08-11T15:37:37.592Z,1.73
2018-08-11T15:51:49.725Z,1.37
2018-08-11T15:54:17.855Z,1.63
2018-08-11T15:56:45.768Z,2.30
2018-08-11T15:59:13.796Z,2.08
2018-08-11T16:01:41.821Z,2.30
2018-08-11T16:04:09.854Z,2.33
2018-08-11T16:06:37.899Z,1.20
2018-08-11T16:09:08.200Z,2.67
2018-08-11T16:11:36.401Z,1.60
2018-08-11T16:14:05.732Z,2.27
2018-08-11T16:16:33.746Z,4.07
2018-08-11T16:19:01.917Z,2.37
2018-08-11T16:21:29.954Z,2.90
2018-08-11T16:23:58.790Z,3.13
2018-08-11T16:26:26.821Z,7.50
2018-08-11T16:28:54.851Z,1.50
2018-08-11T16:31:23.069Z,6.23
2018-08-11T16:33:51.089Z,1.50
2018-08-11T16:36:19.108Z,2.53
2018-08-11T16:38:47.144Z,1.20
2018-08-11T16:41:15.173Z,1.30
2018-08-11T16:43:43.349Z,1.83
2018-08-11T16:46:11.374Z,1.47
2018-08-11T16:48:39.397Z,1.87
2018-08-11T16:51:07.438Z,1.73
2018-08-11T16:53:35.475Z,2.30
2018-08-11T16:56:03.858Z,3.63
2018-08-11T16:58:31.938Z,3.67
2018-08-11T17:01:00.007Z,1.40
2018-08-11T17:03:28.184Z,3.33
2018-08-11T17:05:56.276Z,2.87
2018-08-11T17:08:24.233Z,2.43
2018-08-11T17:10:52.281Z,1.73
2018-08-11T17:13:20.380Z,1.40
2018-08-11T17:15:48.409Z,1.17
2018-08-11T17:18:16.445Z,2.63
2018-08-11T17:20:44.922Z,2.40
2018-08-11T17:23:12.957Z,1.70
2018-08-11T17:25:40.987Z,1.77
2018-08-11T17:28:09.235Z,2.57
2018-08-11T17:30:44.237Z,1.40
2018-08-11T17:33:12.261Z,2.43
2018-08-11T17:35:40.293Z,2.30
2018-08-11T17:38:08.337Z,2.33
2018-08-11T17:40:36.389Z,3.47
2018-08-11T17:43:04.770Z,11.67
2018-08-11T17:45:32.814Z,1.93
2018-08-11T17:48:00.859Z,2.83
2018-08-11T17:50:29.114Z,1.27
2018-08-11T17:52:57.129Z,2.13
2018-08-11T17:55:25.251Z,1.80
2018-08-11T17:57:53.481Z,1.57
2018-08-11T18:00:21.663Z,2.90
2018-08-11T18:02:49.737Z,2.37
2018-08-11T18:05:17.757Z,1.70
2018-08-11T18:07:45.944Z,2.47
2018-08-11T18:10:13.998Z,1.33
2018-08-11T18:12:42.072Z,1.40
2018-08-11T18:15:10.104Z,1.80
2018-08-11T18:17:38.148Z,1.50
2018-08-11T18:20:06.200Z,1.70
2018-08-11T18:22:34.252Z,1.37
2018-08-11T18:25:02.444Z,1.37
2018-08-11T18:27:30.510Z,1.17
2018-08-11T18:29:58.529Z,1.60
2018-08-11T18:32:26.721Z,1.30
2018-08-11T18:34:54.758Z,1.87
2018-08-11T18:37:22.785Z,2.15
2018-08-11T18:39:50.809Z,3.33
2018-08-11T18:42:19.001Z,2.90
2018-08-11T18:44:47.028Z,2.63
2018-08-11T18:47:15.063Z,1.63
2018-08-11T18:49:43.100Z,2.20
2018-08-11T18:52:11.866Z,1.47
2018-08-11T18:54:39.866Z,1.93
2018-08-11T18:57:07.930Z,1.97
2018-08-11T18:59:35.945Z,1.37
2018-08-11T19:02:04.941Z,1.72
2018-08-11T19:04:33.112Z,1.40
2018-08-11T19:07:01.134Z,1.40
2018-08-11T19:09:29.164Z,1.20
2018-08-11T19:11:57.210Z,1.20
2018-08-11T19:14:25.391Z,1.63
2018-08-11T19:16:53.413Z,1.10
2018-08-11T19:19:21.433Z,1.10
2018-08-11T19:21:49.464Z,1.87
2018-08-11T19:24:17.489Z,1.63
2018-08-11T19:26:45.733Z,1.40
2018-08-11T19:29:13.773Z,1.60
2018-08-11T19:31:41.837Z,2.12
2018-08-11T19:34:10.042Z,1.80
2018-08-11T19:36:38.320Z,1.63
2018-08-11T19:39:08.117Z,1.27
2018-08-11T19:41:36.171Z,1.77
2018-08-11T19:44:04.520Z,4.83
2018-08-11T19:46:32.770Z,10.88
2018-08-11T19:49:00.761Z,7.97
2018-08-11T19:51:29.073Z,7.67
2018-08-11T19:53:57.096Z,3.97
2018-08-11T19:56:25.305Z,4.43
2018-08-11T19:58:53.368Z,2.20
2018-08-11T20:01:21.684Z,1.47
2018-08-11T20:03:49.854Z,2.13
2018-08-11T20:06:17.855Z,1.10
2018-08-11T20:08:46.041Z,2.30
2018-08-11T20:11:14.370Z,2.90
2018-08-11T20:13:42.461Z,2.00
2018-08-11T20:16:10.499Z,2.72
2018-08-11T20:18:38.546Z,1.60
2018-08-11T20:21:06.953Z,1.80
2018-08-11T20:23:34.989Z,2.17
2018-08-11T20:26:03.180Z,1.40
2018-08-11T20:28:31.330Z,2.43
2018-08-11T20:30:59.368Z,5.33
2018-08-11T20:33:27.419Z,3.03
2018-08-11T20:35:55.437Z,3.47
2018-08-11T20:38:23.765Z,2.00
2018-08-11T20:40:51.817Z,1.80
2018-08-11T20:43:19.926Z,1.75
2018-08-11T20:45:48.064Z,1.80
2018-08-11T20:48:16.094Z,1.67
2018-08-11T20:50:44.121Z,1.70
2018-08-11T20:53:12.214Z,1.93
2018-08-11T20:55:40.818Z,1.70
2018-08-11T20:58:08.957Z,3.07
2018-08-11T21:00:37.119Z,2.12
2018-08-11T21:03:07.268Z,1.83
2018-08-11T21:05:35.316Z,1.70
2018-08-11T21:08:03.404Z,1.57
2018-08-11T21:10:31.450Z,2.00
2018-08-11T21:12:59.489Z,1.90
2018-08-11T21:15:27.629Z,2.00
2018-08-11T21:17:55.574Z,2.50
2018-08-11T21:20:23.600Z,2.63
2018-08-11T21:22:51.630Z,2.57
2018-08-11T21:25:20.023Z,1.90
2018-08-11T21:27:48.065Z,2.63
2018-08-11T21:30:16.124Z,2.65
2018-08-11T21:32:44.164Z,2.00
2018-08-11T21:35:12.212Z,3.30
2018-08-11T21:37:40.263Z,1.90
2018-08-11T21:40:10.854Z,1.90
2018-08-11T21:42:39.156Z,1.93
2018-08-11T21:45:07.437Z,2.40
2018-08-11T21:47:35.482Z,1.90
2018-08-11T21:50:03.562Z,2.00
2018-08-11T21:52:31.672Z,1.70
2018-08-11T21:54:59.801Z,2.30
2018-08-11T21:57:27.898Z,2.20
2018-08-11T21:59:56.125Z,2.50
2018-08-11T22:02:24.337Z,3.33
2018-08-11T22:04:52.408Z,2.33
2018-08-11T22:07:20.800Z,2.13
2018-08-11T22:09:48.813Z,2.70
2018-08-11T22:12:16.849Z,1.97
2018-08-11T22:14:44.901Z,2.17
2018-08-11T22:17:12.932Z,2.33
2018-08-11T22:19:41.184Z,2.47
2018-08-11T22:22:09.215Z,1.97
2018-08-11T22:24:37.317Z,2.07
2018-08-11T22:27:05.692Z,2.10
2018-08-11T22:29:33.757Z,2.23
2018-08-11T22:32:01.802Z,2.40
2018-08-11T22:34:29.826Z,2.37
2018-08-11T22:36:58.152Z,2.47
2018-08-11T22:39:26.186Z,1.80
2018-08-11T22:41:54.212Z,2.83
2018-08-11T22:44:22.251Z,2.67
2018-08-11T22:46:50.539Z,3.00
2018-08-11T22:49:18.572Z,1.90
2018-08-11T22:51:46.601Z,3.97
2018-08-11T22:54:14.648Z,1.75
2018-08-11T22:56:42.657Z,1.97
2018-08-11T22:59:10.671Z,1.87
2018-08-11T23:01:38.733Z,3.03
2018-08-11T23:04:06.773Z,2.17
2018-08-11T23:06:34.801Z,2.00
2018-08-11T23:09:02.883Z,2.80
2018-08-11T23:11:30.973Z,1.80
2018-08-11T23:13:59.025Z,1.83
2018-08-11T23:16:27.065Z,2.17
2018-08-11T23:18:55.093Z,2.07
2018-08-11T23:21:23.128Z,2.63
2018-08-11T23:23:51.304Z,1.93
2018-08-11T23:26:19.317Z,3.70
2018-08-11T23:28:47.336Z,2.30
2018-08-11T23:31:15.376Z,2.25
2018-08-11T23:33:43.396Z,2.43
2018-08-11T23:36:11.420Z,1.90
2018-08-11T23:38:39.469Z,1.70
2018-08-11T23:41:07.528Z,2.63
2018-08-11T23:43:35.567Z,1.83
2018-08-11T23:46:03.593Z,2.57
2018-08-11T23:48:31.623Z,3.53
2018-08-11T23:50:59.640Z,3.10
2018-08-11T23:53:27.665Z,1.90
2018-08-11T23:55:55.706Z,2.10
2018-08-11T23:58:23.754Z,2.03
